createdAt,value
2022-09-28T00:01:21.891Z,5.40
2022-09-28T00:03:52.220Z,5.90
2022-09-28T00:06:24.997Z,5.60
2022-09-28T00:08:54.052Z,5.20
2022-09-28T00:11:24.028Z,5.80
2022-09-28T00:13:56.626Z,5.60
2022-09-28T00:16:28.777Z,5.00
2022-09-28T00:18:57.086Z,5.50
2022-09-28T00:21:31.109Z,4.10
2022-09-28T00:24:13.096Z,4.10
2022-09-28T00:26:45.775Z,2.70
2022-09-28T00:29:18.658Z,2.60
2022-09-28T00:31:47.760Z,2.90
2022-09-28T00:34:16.450Z,2.60
2022-09-28T00:36:46.563Z,2.10
2022-09-28T00:39:16.014Z,1.50
2022-09-28T00:41:45.129Z,1.80
2022-09-28T00:44:25.419Z,1.80
2022-09-28T00:46:54.828Z,1.80
2022-09-28T00:49:32.655Z,1.80
2022-09-28T00:52:03.423Z,1.70
2022-09-28T00:54:31.942Z,2.20
2022-09-28T00:57:01.222Z,3.20
2022-09-28T00:59:29.524Z,2.70
2022-09-28T01:01:57.566Z,2.50
2022-09-28T01:04:29.744Z,3.00
2022-09-28T01:07:00.344Z,2.80
2022-09-28T01:09:29.797Z,2.80
2022-09-28T01:11:57.762Z,3.10
2022-09-28T01:14:26.248Z,3.20
2022-09-28T01:17:32.214Z,3.10
2022-09-28T01:20:40.934Z,3.00
2022-09-28T01:23:35.930Z,3.50
2022-09-28T01:26:41.999Z,3.10
2022-09-28T01:29:24.915Z,2.30
2022-09-28T01:32:25.142Z,2.10
2022-09-28T01:34:59.972Z,2.00
2022-09-28T01:37:37.570Z,1.90
2022-09-28T01:40:09.933Z,1.90
2022-09-28T01:42:41.240Z,1.60
2022-09-28T01:45:22.266Z,1.90
2022-09-28T01:47:57.298Z,2.90
2022-09-28T01:50:29.266Z,2.80
2022-09-28T01:53:06.336Z,2.40
2022-09-28T01:55:39.178Z,2.40
2022-09-28T01:58:15.103Z,2.60
2022-09-28T02:00:48.526Z,2.10
2022-09-28T02:03:40.210Z,1.90
2022-09-28T02:06:16.682Z,1.30
2022-09-28T02:08:54.045Z,1.80
2022-09-28T02:11:23.797Z,2.10
2022-09-28T02:14:01.552Z,2.50
2022-09-28T02:16:43.109Z,2.20
2022-09-28T02:19:18.136Z,2.10
2022-09-28T02:22:03.746Z,2.40
2022-09-28T02:24:44.390Z,2.40
2022-09-28T02:27:42.923Z,2.40
2022-09-28T02:30:11.612Z,2.10
2022-09-28T02:32:44.300Z,2.00
2022-09-28T02:35:14.709Z,2.00
2022-09-28T02:37:43.818Z,2.20
2022-09-28T02:40:26.671Z,2.30
2022-09-28T02:43:23.897Z,2.00
2022-09-28T02:49:10.675Z,2.20
2022-09-28T02:51:57.028Z,2.10
2022-09-28T02:54:49.885Z,2.30
2022-09-28T02:57:51.742Z,2.60
2022-09-28T03:00:24.175Z,2.20
2022-09-28T03:02:57.925Z,1.90
2022-09-28T03:05:38.595Z,2.40
2022-09-28T03:08:32.677Z,2.30
2022-09-28T03:11:25.149Z,2.20
2022-09-28T03:13:53.904Z,2.70
2022-09-28T03:16:24.193Z,3.00
2022-09-28T03:18:52.529Z,4.90
2022-09-28T03:21:20.576Z,4.20
2022-09-28T03:23:48.954Z,3.50
2022-09-28T03:26:18.138Z,3.40
2022-09-28T03:28:46.328Z,3.90
2022-09-28T03:31:18.631Z,3.60
2022-09-28T03:33:46.671Z,3.40
2022-09-28T03:36:15.458Z,3.60
2022-09-28T03:38:43.431Z,4.00
2022-09-28T03:41:11.909Z,3.80
2022-09-28T03:43:41.925Z,4.00
2022-09-28T03:46:10.285Z,3.40
2022-09-28T03:48:42.476Z,3.30
2022-09-28T03:51:12.906Z,3.50
2022-09-28T03:53:40.886Z,3.00
2022-09-28T03:56:14.845Z,3.00
2022-09-28T03:58:43.156Z,2.90
2022-09-28T04:01:17.226Z,3.20
2022-09-28T04:03:47.089Z,3.10
2022-09-28T04:06:15.468Z,3.00
2022-09-28T04:08:43.707Z,3.40
2022-09-28T04:11:12.224Z,4.30
2022-09-28T04:13:40.398Z,3.20
2022-09-28T04:16:11.961Z,2.90
2022-09-28T04:18:42.787Z,4.00
2022-09-28T04:21:13.006Z,3.90
2022-09-28T04:23:48.925Z,4.20
2022-09-28T04:26:22.835Z,4.90
2022-09-28T04:29:09.484Z,3.40
2022-09-28T04:31:51.754Z,3.80
2022-09-28T04:34:22.630Z,3.50
2022-09-28T04:36:51.407Z,3.50
2022-09-28T04:39:20.203Z,3.80
2022-09-28T04:41:51.351Z,4.00
2022-09-28T04:44:19.721Z,3.90
2022-09-28T04:46:48.918Z,4.40
2022-09-28T04:49:32.152Z,4.00
2022-09-28T04:52:07.390Z,4.10
2022-09-28T04:54:36.183Z,4.10
2022-09-28T04:57:06.273Z,3.70
2022-09-28T04:59:34.475Z,3.40
2022-09-28T05:02:02.678Z,3.80
2022-09-28T05:04:49.459Z,3.30
2022-09-28T05:07:36.264Z,4.00
2022-09-28T05:10:06.896Z,4.60
2022-09-28T05:12:35.274Z,4.50
2022-09-28T05:15:05.095Z,4.40
2022-09-28T05:17:33.268Z,4.00
2022-09-28T05:20:09.219Z,4.50
2022-09-28T05:22:37.911Z,4.60
2022-09-28T05:25:07.314Z,4.10
2022-09-28T05:27:46.746Z,4.30
2022-09-28T05:30:31.003Z,4.70
2022-09-28T05:33:21.906Z,4.20
2022-09-28T05:36:01.078Z,4.70
2022-09-28T05:38:31.154Z,4.90
2022-09-28T05:41:02.080Z,5.60
2022-09-28T05:43:33.139Z,5.10
2022-09-28T05:46:01.286Z,5.80
2022-09-28T05:48:30.203Z,8.80
2022-09-28T05:51:01.447Z,6.40
2022-09-28T05:53:29.418Z,5.60
2022-09-28T05:55:59.843Z,7.50
2022-09-28T05:58:28.844Z,6.30
2022-09-28T06:00:57.598Z,5.90
2022-09-28T06:03:26.006Z,6.20
2022-09-28T06:05:55.197Z,7.00
2022-09-28T06:08:23.163Z,6.60
2022-09-28T06:11:02.311Z,5.60
2022-09-28T06:13:30.482Z,5.60
2022-09-28T06:15:58.452Z,5.30
2022-09-28T06:18:27.492Z,4.10
2022-09-28T06:21:14.562Z,4.30
2022-09-28T06:23:48.959Z,4.40
2022-09-28T06:26:18.849Z,3.50
2022-09-28T06:28:47.275Z,2.80
2022-09-28T06:31:16.073Z,2.80
2022-09-28T06:33:50.834Z,3.40
2022-09-28T06:36:20.972Z,2.70
2022-09-28T06:38:50.421Z,2.80
2022-09-28T06:41:18.591Z,2.50
2022-09-28T06:43:48.815Z,2.40
2022-09-28T06:46:38.322Z,2.90
2022-09-28T06:49:27.251Z,2.60
2022-09-28T06:52:13.836Z,2.50
2022-09-28T06:55:00.493Z,3.10
2022-09-28T06:57:40.415Z,3.10
2022-09-28T07:00:09.214Z,2.90
2022-09-28T07:02:37.667Z,3.80
2022-09-28T07:05:36.884Z,3.20
2022-09-28T07:08:26.057Z,3.20
2022-09-28T07:11:07.433Z,2.60
2022-09-28T07:14:22.401Z,3.80
2022-09-28T07:17:13.084Z,3.10
2022-09-28T07:19:43.028Z,3.80
2022-09-28T07:22:18.916Z,3.40
2022-09-28T07:24:48.902Z,3.10
2022-09-28T07:27:39.802Z,3.00
2022-09-28T07:30:40.367Z,3.30
2022-09-28T07:33:19.464Z,3.20
2022-09-28T07:35:55.738Z,3.30
2022-09-28T07:38:29.638Z,3.30
2022-09-28T07:41:14.319Z,3.70
2022-09-28T07:43:46.575Z,3.90
2022-09-28T07:46:15.120Z,3.00
2022-09-28T07:48:49.829Z,3.10
2022-09-28T07:51:38.133Z,2.90
2022-09-28T07:54:39.805Z,3.20
2022-09-28T07:57:29.461Z,3.20
2022-09-28T08:00:17.812Z,4.40
2022-09-28T08:02:48.502Z,5.20
2022-09-28T08:05:22.351Z,5.40
2022-09-28T08:07:50.422Z,4.00
2022-09-28T08:10:20.184Z,4.20
2022-09-28T08:13:08.708Z,4.10
2022-09-28T08:15:39.918Z,4.10
2022-09-28T08:18:31.760Z,4.60
2022-09-28T08:21:18.453Z,4.50
2022-09-28T08:23:46.849Z,3.90
2022-09-28T08:26:16.765Z,3.60
2022-09-28T08:28:47.976Z,3.30
2022-09-28T08:31:36.451Z,3.20
2022-09-28T08:34:22.859Z,2.90
2022-09-28T08:37:07.217Z,3.00
2022-09-28T08:39:55.458Z,3.10
2022-09-28T08:42:42.927Z,2.80
2022-09-28T08:45:35.191Z,2.90
2022-09-28T08:49:06.604Z,3.00
2022-09-28T08:52:03.940Z,3.10
2022-09-28T08:55:24.903Z,3.20
2022-09-28T08:57:54.940Z,2.80
2022-09-28T09:00:51.212Z,2.90
2022-09-28T09:03:34.326Z,2.60
2022-09-28T09:07:15.002Z,2.70
2022-09-28T09:10:11.645Z,2.50
2022-09-28T09:13:03.585Z,2.70
2022-09-28T09:15:54.191Z,3.40
2022-09-28T09:18:42.317Z,3.30
2022-09-28T09:21:42.339Z,2.70
2022-09-28T09:24:35.596Z,2.40
2022-09-28T09:27:13.298Z,2.60
2022-09-28T09:30:19.303Z,2.30
2022-09-28T09:32:57.059Z,2.30
2022-09-28T09:35:33.932Z,3.30
2022-09-28T09:39:20.649Z,2.50
2022-09-28T09:42:22.001Z,2.60
2022-09-28T09:45:54.981Z,2.20
2022-09-28T09:48:47.556Z,4.00
2022-09-28T09:51:56.175Z,3.20
2022-09-28T09:54:36.219Z,2.20
2022-09-28T09:57:13.309Z,2.00
2022-09-28T09:59:58.572Z,2.60
2022-09-28T10:02:45.267Z,2.20
2022-09-28T10:05:37.315Z,2.20
2022-09-28T10:08:08.362Z,2.40
2022-09-28T10:10:49.667Z,1.90
2022-09-28T10:13:19.494Z,1.90
2022-09-28T10:15:48.484Z,1.90
2022-09-28T10:18:21.956Z,1.90
2022-09-28T10:21:24.115Z,1.80
2022-09-28T10:24:32.541Z,1.60
2022-09-28T10:27:13.819Z,2.00
2022-09-28T10:29:54.073Z,1.90
2022-09-28T10:32:41.194Z,2.20
2022-09-28T10:35:31.893Z,2.30
2022-09-28T10:38:19.729Z,2.00
2022-09-28T10:40:56.016Z,1.80
2022-09-28T10:44:08.950Z,1.90
2022-09-28T10:47:02.357Z,1.60
2022-09-28T10:49:48.993Z,1.80
2022-09-28T10:52:36.720Z,1.90
2022-09-28T10:55:26.915Z,2.50
2022-09-28T10:57:55.401Z,2.30
2022-09-28T11:00:38.927Z,1.70
2022-09-28T11:03:25.284Z,1.80
2022-09-28T11:05:55.607Z,1.80
2022-09-28T11:08:32.594Z,2.80
2022-09-28T11:11:11.563Z,2.10
2022-09-28T11:13:47.311Z,1.50
2022-09-28T11:16:28.871Z,1.80
2022-09-28T11:18:59.193Z,1.60
2022-09-28T11:21:40.967Z,1.60
2022-09-28T11:24:18.886Z,1.50
2022-09-28T11:26:53.035Z,1.50
2022-09-28T11:29:26.635Z,1.40
2022-09-28T11:35:19.817Z,2.10
2022-09-28T11:38:03.457Z,1.20
2022-09-28T11:41:09.214Z,1.70
2022-09-28T11:44:03.555Z,1.10
2022-09-28T11:46:38.126Z,1.50
2022-09-28T11:49:27.495Z,2.90
2022-09-28T11:52:01.608Z,2.00
2022-09-28T11:54:38.794Z,1.40
2022-09-28T11:57:22.326Z,2.00
2022-09-28T11:59:59.205Z,1.20
2022-09-28T12:02:40.021Z,1.30
2022-09-28T12:05:21.370Z,1.90
2022-09-28T12:07:56.871Z,1.40
2022-09-28T12:11:00.386Z,1.30
2022-09-28T12:13:51.825Z,1.70
2022-09-28T12:19:48.091Z,1.40
2022-09-28T12:22:25.532Z,1.20
2022-09-28T12:24:57.941Z,1.30
2022-09-28T12:27:45.371Z,1.50
2022-09-28T12:30:20.813Z,1.20
2022-09-28T12:33:01.076Z,1.90
2022-09-28T12:35:29.115Z,1.60
2022-09-28T12:38:20.741Z,1.70
2022-09-28T12:41:16.902Z,1.30
2022-09-28T12:44:02.275Z,1.30
2022-09-28T12:46:49.161Z,1.80
2022-09-28T12:50:36.675Z,1.00
2022-09-28T12:55:25.034Z,1.60
2022-09-28T12:57:59.638Z,1.30
2022-09-28T13:00:54.098Z,1.80
2022-09-28T13:03:49.721Z,1.50
2022-09-28T13:06:26.492Z,1.40
2022-09-28T13:09:20.292Z,1.20
2022-09-28T13:11:54.998Z,1.70
2022-09-28T13:15:03.308Z,1.50
2022-09-28T13:17:42.811Z,1.40
2022-09-28T13:20:38.710Z,1.50
2022-09-28T13:23:23.860Z,1.10
2022-09-28T13:26:05.130Z,1.20
2022-09-28T13:28:35.859Z,1.10
2022-09-28T13:31:05.754Z,1.10
2022-09-28T13:33:37.024Z,1.60
2022-09-28T13:36:25.788Z,1.20
2022-09-28T13:38:55.696Z,3.80
2022-09-28T13:41:35.698Z,1.90
2022-09-28T13:44:20.385Z,1.90
2022-09-28T13:47:10.294Z,3.80
2022-09-28T13:50:09.068Z,3.20
2022-09-28T13:53:09.178Z,1.50
2022-09-28T13:56:02.064Z,2.00
2022-09-28T13:58:32.793Z,1.00
2022-09-28T14:01:11.166Z,1.80
2022-09-28T14:04:19.336Z,1.50
2022-09-28T14:07:09.504Z,1.00
2022-09-28T14:09:47.000Z,1.00
2022-09-28T14:12:43.545Z,1.50
2022-09-28T14:15:30.001Z,2.70
2022-09-28T14:18:16.142Z,1.30
2022-09-28T14:20:58.346Z,2.50
2022-09-28T14:24:00.229Z,1.30
2022-09-28T14:26:41.948Z,1.70
2022-09-28T14:29:28.557Z,2.20
2022-09-28T14:31:59.139Z,2.60
2022-09-28T14:34:58.529Z,1.30
2022-09-28T14:37:56.316Z,1.80
2022-09-28T14:40:49.524Z,1.60
2022-09-28T14:43:45.718Z,1.70
2022-09-28T14:46:20.076Z,2.00
2022-09-28T14:48:52.907Z,2.00
2022-09-28T14:51:27.052Z,1.50
2022-09-28T14:54:01.381Z,1.60
2022-09-28T14:56:43.844Z,2.00
2022-09-28T14:59:20.570Z,1.20
2022-09-28T15:02:01.422Z,1.40
2022-09-28T15:04:30.941Z,1.50
2022-09-28T15:06:59.485Z,1.80
2022-09-28T15:09:36.416Z,1.50
2022-09-28T15:12:16.552Z,1.40
2022-09-28T15:14:49.813Z,1.30
2022-09-28T15:17:22.698Z,1.40
2022-09-28T15:19:51.384Z,1.60
2022-09-28T15:22:21.176Z,1.00
2022-09-28T15:25:02.253Z,1.30
2022-09-28T15:27:38.020Z,1.60
2022-09-28T15:30:32.207Z,2.20
2022-09-28T15:33:22.701Z,2.30
2022-09-28T15:36:02.856Z,2.70
2022-09-28T15:38:34.929Z,2.80
2022-09-28T15:41:05.813Z,1.50
2022-09-28T15:43:34.857Z,2.10
2022-09-28T15:46:21.635Z,1.80
2022-09-28T15:49:00.386Z,2.50
2022-09-28T15:51:29.995Z,2.10
2022-09-28T15:54:01.239Z,2.20
2022-09-28T15:56:30.540Z,2.30
2022-09-28T15:59:30.872Z,2.10
2022-09-28T16:02:08.263Z,2.00
2022-09-28T16:04:59.034Z,2.00
2022-09-28T16:07:35.840Z,3.50
2022-09-28T16:10:11.609Z,3.40
2022-09-28T16:12:55.126Z,3.30
2022-09-28T16:15:28.685Z,2.40
2022-09-28T16:18:02.765Z,2.20
2022-09-28T16:20:41.567Z,2.20
2022-09-28T16:23:09.840Z,2.20
2022-09-28T16:25:39.242Z,1.90
2022-09-28T16:28:07.417Z,1.70
2022-09-28T16:30:35.597Z,2.20
2022-09-28T16:33:06.867Z,1.80
2022-09-28T16:35:40.648Z,2.30
2022-09-28T16:38:14.436Z,3.20
2022-09-28T16:40:52.793Z,2.40
2022-09-28T16:43:27.744Z,2.20
2022-09-28T16:46:02.291Z,2.30
2022-09-28T16:48:32.341Z,2.20
2022-09-28T16:51:00.550Z,3.20
2022-09-28T16:53:47.425Z,3.30
2022-09-28T16:56:16.112Z,3.70
2022-09-28T16:58:48.181Z,5.40
2022-09-28T17:01:16.367Z,5.00
2022-09-28T17:03:47.094Z,5.60
2022-09-28T17:06:16.892Z,5.20
2022-09-28T17:08:45.385Z,5.20
2022-09-28T17:11:22.567Z,4.80
2022-09-28T17:13:52.479Z,4.70
2022-09-28T17:16:37.026Z,5.10
2022-09-28T17:19:19.792Z,4.70
2022-09-28T17:21:49.055Z,4.50
2022-09-28T17:24:18.073Z,4.30
2022-09-28T17:26:47.864Z,4.30
2022-09-28T17:29:16.235Z,5.20
2022-09-28T17:31:45.356Z,7.30
2022-09-28T17:34:16.262Z,7.50
2022-09-28T17:36:45.371Z,7.80
2022-09-28T17:39:19.206Z,8.20
2022-09-28T17:41:47.759Z,8.90
2022-09-28T17:44:16.501Z,10.80
2022-09-28T17:46:48.844Z,10.60
2022-09-28T17:49:17.515Z,9.10
2022-09-28T17:51:45.831Z,8.10
2022-09-28T17:54:16.999Z,8.00
2022-09-28T17:56:46.434Z,11.10
2022-09-28T17:59:17.636Z,9.60
2022-09-28T18:01:45.857Z,8.80
2022-09-28T18:04:39.640Z,9.30
2022-09-28T18:07:04.527Z,10.50
2022-09-28T18:09:32.495Z,10.70
2022-09-28T18:12:04.350Z,9.40
2022-09-28T18:14:32.935Z,8.50
2022-09-28T18:17:01.005Z,8.90
2022-09-28T18:19:32.190Z,8.30
2022-09-28T18:22:01.724Z,8.90
2022-09-28T18:24:32.684Z,9.40
2022-09-28T18:27:00.712Z,9.20
2022-09-28T18:29:33.147Z,9.60
2022-09-28T18:32:02.755Z,10.10
2022-09-28T18:34:31.235Z,10.10
2022-09-28T18:36:59.309Z,9.90
2022-09-28T18:39:27.373Z,9.60
2022-09-28T18:41:55.454Z,9.20
2022-09-28T18:44:24.040Z,8.30
2022-09-28T18:46:52.100Z,9.20
2022-09-28T18:49:21.618Z,8.30
2022-09-28T18:51:49.850Z,8.70
2022-09-28T18:54:18.165Z,9.70
2022-09-28T18:56:46.131Z,9.10
2022-09-28T18:59:14.884Z,8.30
2022-09-28T19:01:43.725Z,9.70
2022-09-28T19:04:12.092Z,9.60
2022-09-28T19:06:41.846Z,10.10
2022-09-28T19:09:10.894Z,9.90
2022-09-28T19:11:39.172Z,10.10
2022-09-28T19:14:10.968Z,10.40
2022-09-28T19:16:39.107Z,10.70
2022-09-28T19:19:07.377Z,10.80
2022-09-28T19:21:35.563Z,11.50
2022-09-28T19:24:04.458Z,11.60
2022-09-28T19:26:33.300Z,11.30
2022-09-28T19:29:03.146Z,9.30
2022-09-28T19:31:32.861Z,8.40
2022-09-28T19:34:01.037Z,8.10
2022-09-28T19:36:29.512Z,10.60
2022-09-28T19:39:03.354Z,9.10
2022-09-28T19:41:43.518Z,10.30
2022-09-28T19:44:26.299Z,9.60
2022-09-28T19:47:01.263Z,7.30
2022-09-28T19:49:33.146Z,8.10
2022-09-28T19:52:13.301Z,7.90
2022-09-28T19:54:55.958Z,9.20
2022-09-28T19:57:26.122Z,8.30
2022-09-28T19:59:59.230Z,7.20
2022-09-28T20:02:29.603Z,8.20
2022-09-28T20:04:57.763Z,8.10
2022-09-28T20:07:25.835Z,6.60
2022-09-28T20:09:53.810Z,6.30
2022-09-28T20:12:22.505Z,6.20
2022-09-28T20:14:50.565Z,5.10
2022-09-28T20:17:19.377Z,6.10
2022-09-28T20:19:48.139Z,6.10
2022-09-28T20:22:17.140Z,6.20
2022-09-28T20:24:45.211Z,6.40
2022-09-28T20:27:13.105Z,7.40
2022-09-28T20:29:43.151Z,7.50
2022-09-28T20:32:11.780Z,7.30
2022-09-28T20:34:39.730Z,6.70
2022-09-28T20:37:07.823Z,5.20
2022-09-28T20:39:35.896Z,4.80
2022-09-28T20:42:03.963Z,5.10
2022-09-28T20:44:32.038Z,5.20
2022-09-28T20:47:01.199Z,4.10
2022-09-28T20:49:29.206Z,4.50
2022-09-28T20:51:57.170Z,5.10
2022-09-28T20:54:25.754Z,4.50
2022-09-28T20:56:53.932Z,4.50
2022-09-28T20:59:25.906Z,4.30
2022-09-28T21:01:53.995Z,5.10
2022-09-28T21:04:21.914Z,5.40
2022-09-28T21:06:49.906Z,5.80
2022-09-28T21:09:18.081Z,6.40
2022-09-28T21:11:46.563Z,7.50
2022-09-28T21:14:14.527Z,7.30
2022-09-28T21:16:42.506Z,6.60
2022-09-28T21:19:10.463Z,5.80
2022-09-28T21:21:38.542Z,5.30
2022-09-28T21:24:07.145Z,5.80
2022-09-28T21:26:35.814Z,7.00
2022-09-28T21:29:07.156Z,7.80
2022-09-28T21:31:47.851Z,10.60
2022-09-28T21:34:20.680Z,10.70
2022-09-28T21:36:51.356Z,10.10
2022-09-28T21:39:20.441Z,9.30
2022-09-28T21:41:48.517Z,10.10
2022-09-28T21:44:16.674Z,9.90
2022-09-28T21:46:44.792Z,10.20
2022-09-28T21:49:14.468Z,9.70
2022-09-28T21:51:42.536Z,10.20
2022-09-28T21:54:12.111Z,9.60
2022-09-28T21:56:40.220Z,8.50
2022-09-28T21:59:08.292Z,8.00
2022-09-28T22:01:36.298Z,8.50
2022-09-28T22:04:04.329Z,10.30
2022-09-28T22:06:32.302Z,9.90
2022-09-28T22:09:00.351Z,14.30
2022-09-28T22:11:29.161Z,15.90
2022-09-28T22:13:59.806Z,11.60
2022-09-28T22:16:31.143Z,11.10
2022-09-28T22:18:59.993Z,10.00
2022-09-28T22:21:32.037Z,9.40
2022-09-28T22:24:02.830Z,9.20
2022-09-28T22:26:33.105Z,9.90
2022-09-28T22:29:07.786Z,7.60
2022-09-28T22:31:38.753Z,7.30
2022-09-28T22:34:09.018Z,6.90
2022-09-28T22:36:37.222Z,6.10
2022-09-28T22:39:05.214Z,5.40
2022-09-28T22:41:33.673Z,6.30
2022-09-28T22:44:01.944Z,7.00
2022-09-28T22:46:32.276Z,6.70
2022-09-28T22:49:00.860Z,6.70
2022-09-28T22:51:30.157Z,6.40
2022-09-28T22:53:58.540Z,6.40
2022-09-28T22:56:27.020Z,6.20
2022-09-28T22:58:55.501Z,6.20
2022-09-28T23:01:25.872Z,6.70
2022-09-28T23:03:55.060Z,6.60
2022-09-28T23:06:26.779Z,6.30
2022-09-28T23:08:55.025Z,5.80
2022-09-28T23:11:23.132Z,6.30
2022-09-28T23:13:52.744Z,5.70
2022-09-28T23:16:23.558Z,5.50
2022-09-28T23:18:53.280Z,5.90
2022-09-28T23:21:24.205Z,5.60
2022-09-28T23:24:01.743Z,5.70
2022-09-28T23:26:32.553Z,6.10
2022-09-28T23:29:00.625Z,6.20
2022-09-28T23:31:31.551Z,5.90
2022-09-28T23:34:05.983Z,5.50
2022-09-28T23:36:34.041Z,5.30
2022-09-28T23:39:03.385Z,5.10
2022-09-28T23:41:31.320Z,5.00
2022-09-28T23:43:59.160Z,4.70
2022-09-28T23:46:27.190Z,3.60
2022-09-28T23:48:55.234Z,3.90
2022-09-28T23:51:23.200Z,3.90
2022-09-28T23:53:51.278Z,3.80
2022-09-28T23:56:19.344Z,4.00
2022-09-28T23:58:47.184Z,3.50
